Terminal Aerodrome Forecast
Issued by NWS Sterling, VA

Current Version | Previous Version | Graphics & Text | Print | Product List | Glossary On
Versions: 1 2 3 4 5 6 7 8 9 10 11 12 13 14 15 16 17 18 19 20 21 22 23 24 25 26
321
FTUS41 KLWX 231932 AAA
TAFIAD
TAF AMD
KIAD 231932Z 2320/2424 21012G23KT P6SM BKN050
     FM240300 21009KT 6SM -SHRA BKN070
     FM240600 22009KT 4SM SHRA OVC040 WS020/21035KT
     FM241000 22008KT 5SM -SHRA OVC040
     FM241200 29008KT P6SM BKN045
     FM241500 29012G19KT P6SM BKN050
     FM242300 30009KT P6SM SCT250=

USA.gov is the U.S. government's official web portal to all federal, state and local government web resources and services.